createdAt,value
2023-04-20T00:00:21.073Z,69.43
2023-04-20T00:02:49.631Z,69.20
2023-04-20T00:05:16.796Z,69.15
2023-04-20T00:07:43.751Z,71.42
2023-04-20T00:10:10.832Z,72.32
2023-04-20T00:12:37.905Z,73.38
2023-04-20T00:15:06.673Z,74.22
2023-04-20T00:17:33.900Z,75.04
2023-04-20T00:20:02.401Z,75.94
2023-04-20T00:22:29.260Z,75.75
2023-04-20T00:24:56.169Z,75.65
2023-04-20T00:27:23.106Z,75.69
2023-04-20T00:29:51.058Z,74.91
2023-04-20T00:32:18.130Z,75.97
2023-04-20T00:34:45.094Z,75.72
2023-04-20T00:37:13.542Z,75.33
2023-04-20T00:39:40.948Z,75.75
2023-04-20T00:42:10.623Z,76.59
2023-04-20T00:44:37.541Z,76.06
2023-04-20T00:47:04.618Z,75.90
2023-04-20T00:49:33.422Z,75.81
2023-04-20T00:56:35.632Z,78.13
2023-04-20T00:59:02.946Z,79.10
2023-04-20T01:01:30.289Z,78.19
2023-04-20T01:03:58.774Z,77.37
2023-04-20T01:06:26.013Z,77.32
2023-04-20T01:08:53.821Z,77.32
2023-04-20T01:11:20.774Z,77.43
2023-04-20T01:13:49.196Z,77.32
2023-04-20T01:16:16.545Z,76.92
2023-04-20T01:19:34.609Z,77.27
2023-04-20T01:22:02.994Z,78.20
2023-04-20T01:24:31.882Z,77.69
2023-04-20T01:27:02.284Z,78.04
2023-04-20T01:29:29.227Z,79.47
2023-04-20T01:31:56.198Z,79.13
2023-04-20T01:34:24.925Z,77.83
2023-04-20T01:36:51.923Z,78.39
2023-04-20T01:39:19.258Z,78.23
2023-04-20T01:42:00.869Z,78.85
2023-04-20T01:44:28.052Z,79.00
2023-04-20T01:46:55.379Z,79.87
2023-04-20T01:49:22.215Z,79.49
2023-04-20T01:51:50.186Z,80.07
2023-04-20T01:54:17.039Z,80.14
2023-04-20T01:56:44.047Z,79.55
2023-04-20T01:59:12.421Z,80.81
2023-04-20T02:06:30.664Z,82.43
2023-04-20T02:08:57.804Z,80.80
2023-04-20T02:11:24.701Z,79.92
2023-04-20T02:13:52.012Z,79.75
2023-04-20T02:16:22.770Z,79.80
2023-04-20T02:18:49.699Z,79.11
2023-04-20T02:21:16.769Z,78.07
2023-04-20T02:23:43.662Z,77.76
2023-04-20T02:26:10.570Z,77.50
2023-04-20T02:28:40.570Z,77.26
2023-04-20T02:31:07.448Z,77.58
2023-04-20T02:33:35.981Z,77.91
2023-04-20T02:36:02.938Z,77.11
2023-04-20T02:38:29.804Z,77.39
2023-04-20T02:40:56.912Z,78.32
2023-04-20T02:43:23.968Z,78.24
2023-04-20T02:45:51.608Z,78.51
2023-04-20T02:48:20.787Z,77.64
2023-04-20T02:50:49.441Z,77.96
2023-04-20T02:53:22.031Z,77.42
2023-04-20T02:55:56.348Z,77.48
2023-04-20T02:58:32.723Z,77.11
2023-04-20T03:01:19.609Z,77.48
2023-04-20T03:03:48.896Z,77.33
2023-04-20T03:06:17.430Z,79.35
2023-04-20T03:08:58.342Z,80.00
2023-04-20T03:11:51.034Z,79.54
2023-04-20T03:14:50.531Z,79.29
2023-04-20T03:17:21.055Z,79.67
2023-04-20T03:19:48.300Z,81.03
2023-04-20T03:22:16.704Z,80.98
2023-04-20T03:24:43.797Z,81.30
2023-04-20T03:27:22.041Z,81.53
2023-04-20T03:30:01.992Z,80.89
2023-04-20T03:32:32.597Z,80.98
2023-04-20T03:35:00.337Z,81.06
2023-04-20T03:37:29.603Z,80.62
2023-04-20T03:39:56.690Z,80.77
2023-04-20T03:42:25.080Z,79.70
2023-04-20T03:44:52.279Z,79.14
2023-04-20T03:48:09.600Z,78.60
2023-04-20T03:50:36.893Z,78.39
2023-04-20T03:53:06.339Z,78.18
2023-04-20T03:55:33.248Z,77.74
2023-04-20T03:58:05.658Z,78.02
2023-04-20T04:00:41.881Z,77.48
2023-04-20T04:03:12.684Z,77.96
2023-04-20T04:05:40.386Z,78.40
2023-04-20T04:08:08.869Z,78.53
2023-04-20T04:10:36.450Z,81.99
2023-04-20T04:14:30.119Z,84.33
2023-04-20T04:17:00.098Z,85.42
2023-04-20T04:19:27.202Z,85.03
2023-04-20T04:21:54.341Z,83.31
2023-04-20T04:24:29.312Z,82.94
2023-04-20T04:27:06.645Z,81.62
2023-04-20T04:29:38.139Z,80.37
2023-04-20T04:32:08.340Z,79.84
2023-04-20T04:34:37.823Z,79.07
2023-04-20T04:37:05.190Z,77.99
2023-04-20T04:39:42.510Z,78.22
2023-04-20T04:42:18.116Z,79.16
2023-04-20T04:44:47.187Z,78.75
2023-04-20T04:47:20.377Z,77.92
2023-04-20T04:49:47.312Z,77.50
2023-04-20T04:52:14.405Z,76.45
2023-04-20T04:54:42.670Z,74.27
2023-04-20T04:57:10.073Z,72.65
2023-04-20T04:59:36.957Z,71.03
2023-04-20T05:02:04.227Z,70.48
2023-04-20T05:04:31.320Z,68.30
2023-04-20T05:06:59.934Z,69.54
2023-04-20T05:09:31.243Z,66.91
2023-04-20T05:12:29.366Z,66.04
2023-04-20T05:15:11.657Z,62.35
2023-04-20T05:17:38.530Z,61.63
2023-04-20T05:20:07.448Z,60.98
2023-04-20T05:22:34.366Z,60.41
2023-04-20T05:25:01.576Z,59.77
2023-04-20T05:27:30.244Z,58.89
2023-04-20T05:30:06.428Z,57.78
2023-04-20T05:32:44.018Z,55.26
2023-04-20T05:35:10.919Z,54.40
2023-04-20T05:37:37.858Z,52.95
2023-04-20T05:40:17.702Z,51.96
2023-04-20T05:42:46.327Z,51.19
2023-04-20T05:45:14.204Z,50.85
2023-04-20T05:47:41.258Z,49.39
2023-04-20T05:50:09.886Z,49.11
2023-04-20T05:52:36.787Z,48.49
2023-04-20T05:55:53.419Z,48.55
2023-04-20T05:58:21.757Z,48.29
2023-04-20T06:00:48.720Z,47.85
2023-04-20T06:03:15.745Z,47.20
2023-04-20T06:05:42.862Z,45.52
2023-04-20T06:08:09.853Z,44.17
2023-04-20T06:10:37.502Z,43.99
2023-04-20T06:17:12.570Z,42.55
2023-04-20T06:19:39.485Z,42.11
2023-04-20T06:22:07.067Z,41.54
2023-04-20T06:24:34.448Z,42.14
2023-04-20T06:27:01.378Z,41.63
2023-04-20T06:29:28.904Z,41.28
2023-04-20T06:31:55.807Z,41.05
2023-04-20T06:34:24.069Z,42.01
2023-04-20T06:36:50.971Z,40.53
2023-04-20T06:39:18.399Z,40.77
2023-04-20T06:41:45.361Z,39.84
2023-04-20T06:44:17.353Z,38.99
2023-04-20T06:46:44.309Z,38.07
2023-04-20T06:54:04.739Z,36.28
2023-04-20T06:56:32.671Z,36.80
2023-04-20T06:59:00.422Z,36.12
2023-04-20T07:01:27.269Z,35.63
2023-04-20T07:04:46.851Z,34.35
2023-04-20T07:07:15.581Z,34.57
2023-04-20T07:09:43.932Z,34.26
2023-04-20T07:12:10.892Z,33.59
2023-04-20T07:14:38.335Z,33.72
2023-04-20T07:17:05.272Z,33.59
2023-04-20T07:19:32.350Z,35.07
2023-04-20T07:21:59.113Z,40.87
2023-04-20T07:24:25.902Z,41.72
2023-04-20T07:26:54.458Z,40.79
2023-04-20T07:29:21.375Z,37.35
2023-04-20T07:32:35.646Z,36.89
2023-04-20T07:35:03.004Z,35.23
2023-04-20T07:37:30.725Z,38.53
2023-04-20T07:39:57.656Z,39.89
2023-04-20T07:43:19.150Z,35.84
2023-04-20T07:46:22.239Z,35.81
2023-04-20T07:48:49.636Z,34.46
2023-04-20T07:51:16.574Z,34.01
2023-04-20T07:53:44.254Z,32.16
2023-04-20T07:56:11.193Z,31.88
2023-04-20T07:58:39.517Z,31.10
2023-04-20T08:01:06.728Z,34.11
2023-04-20T08:03:33.951Z,35.47
2023-04-20T08:06:03.561Z,36.74
2023-04-20T08:08:30.928Z,32.42
2023-04-20T08:10:58.667Z,31.98
2023-04-20T08:13:25.690Z,29.88
2023-04-20T08:15:54.190Z,30.52
2023-04-20T08:18:21.474Z,29.18
2023-04-20T08:20:48.554Z,31.89
2023-04-20T08:23:15.531Z,33.71
2023-04-20T08:25:42.979Z,34.56
2023-04-20T08:28:19.277Z,36.53
2023-04-20T08:30:51.447Z,36.28
2023-04-20T08:33:44.248Z,36.75
2023-04-20T08:36:12.543Z,36.06
2023-04-20T08:38:43.271Z,36.58
2023-04-20T08:41:10.349Z,35.88
2023-04-20T08:43:37.599Z,35.67
2023-04-20T08:48:57.741Z,38.29
2023-04-20T08:51:24.665Z,39.39
2023-04-20T08:53:52.561Z,39.76
2023-04-20T08:56:20.044Z,44.28
2023-04-20T08:58:47.757Z,48.69
2023-04-20T09:01:17.676Z,51.37
2023-04-20T09:03:47.104Z,53.41
2023-04-20T09:06:23.508Z,52.48
2023-04-20T09:08:50.514Z,53.81
2023-04-20T09:11:25.661Z,54.69
2023-04-20T09:14:04.094Z,55.01
2023-04-20T09:16:31.798Z,55.32
2023-04-20T09:18:59.939Z,54.07
2023-04-20T09:21:28.889Z,54.11
2023-04-20T09:23:58.256Z,54.44
2023-04-20T09:26:25.411Z,53.81
2023-04-20T09:28:52.402Z,53.56
2023-04-20T09:31:20.914Z,53.13
2023-04-20T09:33:57.426Z,54.41
2023-04-20T09:36:24.746Z,54.18
2023-04-20T09:39:05.285Z,55.56
2023-04-20T09:41:35.359Z,55.83
2023-04-20T09:44:03.612Z,56.22
2023-04-20T09:46:32.724Z,56.73
2023-04-20T09:49:01.297Z,55.80
2023-04-20T09:51:29.573Z,56.15
2023-04-20T09:53:59.096Z,55.83
2023-04-20T09:56:29.147Z,55.79
2023-04-20T09:58:57.481Z,56.35
2023-04-20T10:01:30.790Z,55.58
2023-04-20T10:04:00.121Z,56.27
2023-04-20T10:06:30.245Z,56.51
2023-04-20T10:08:58.615Z,56.21
2023-04-20T10:11:40.536Z,57.04
2023-04-20T10:14:18.733Z,56.31
2023-04-20T10:16:59.088Z,56.82
2023-04-20T10:19:37.839Z,57.14
2023-04-20T10:22:04.946Z,55.84
2023-04-20T10:24:32.440Z,56.24
2023-04-20T10:27:00.809Z,57.42
2023-04-20T10:29:28.845Z,57.18
2023-04-20T10:31:56.300Z,57.49
2023-04-20T10:34:30.914Z,57.23
2023-04-20T10:37:08.028Z,57.38
2023-04-20T10:39:35.345Z,56.60
2023-04-20T10:42:04.326Z,58.30
2023-04-20T10:44:31.693Z,57.60
2023-04-20T10:46:58.592Z,57.78
2023-04-20T10:49:27.309Z,55.78
2023-04-20T10:51:57.770Z,56.45
2023-04-20T10:54:25.539Z,55.95
2023-04-20T10:56:53.519Z,56.81
2023-04-20T11:03:31.383Z,56.52
2023-04-20T11:05:58.871Z,56.56
2023-04-20T11:08:39.682Z,57.21
2023-04-20T11:15:01.705Z,55.70
2023-04-20T11:17:33.394Z,56.59
2023-04-20T11:20:12.084Z,56.67
2023-04-20T11:22:41.104Z,57.01
2023-04-20T11:26:23.062Z,55.81
2023-04-20T11:28:55.865Z,57.78
2023-04-20T11:31:23.472Z,58.34
2023-04-20T11:33:50.586Z,60.64
2023-04-20T11:41:50.994Z,62.32
2023-04-20T11:44:27.429Z,60.99
2023-04-20T11:46:55.833Z,62.20
2023-04-20T11:49:23.776Z,61.70
2023-04-20T11:51:51.014Z,62.06
2023-04-20T11:54:18.308Z,62.12
2023-04-20T11:56:48.464Z,61.21
2023-04-20T11:59:15.780Z,60.81
2023-04-20T12:01:42.808Z,59.22
2023-04-20T12:04:09.805Z,61.49
2023-04-20T12:06:38.600Z,61.50
2023-04-20T12:09:05.521Z,59.18
2023-04-20T12:11:32.433Z,58.70
2023-04-20T12:14:00.648Z,59.17
2023-04-20T12:16:27.626Z,60.27
2023-04-20T12:18:54.646Z,58.81
2023-04-20T12:21:22.157Z,59.77
2023-04-20T12:23:49.102Z,59.73
2023-04-20T12:26:17.198Z,59.58
2023-04-20T12:29:10.110Z,59.05
2023-04-20T12:31:37.193Z,58.48
2023-04-20T12:34:04.468Z,59.08
2023-04-20T12:37:22.139Z,58.11
2023-04-20T12:39:49.083Z,58.92
2023-04-20T12:43:31.995Z,60.51
2023-04-20T12:48:42.065Z,61.58
2023-04-20T12:51:09.072Z,60.78
2023-04-20T12:53:36.043Z,60.40
2023-04-20T12:56:02.943Z,60.78
2023-04-20T12:58:29.977Z,59.52
2023-04-20T13:00:57.480Z,59.67
2023-04-20T13:03:27.027Z,60.61
2023-04-20T13:05:55.590Z,59.73
2023-04-20T13:08:22.756Z,60.04
2023-04-20T13:10:49.681Z,58.54
2023-04-20T13:13:17.185Z,59.07
2023-04-20T13:15:44.268Z,60.18
2023-04-20T13:18:11.479Z,58.91
2023-04-20T13:20:40.224Z,59.46
2023-04-20T13:23:07.279Z,58.61
2023-04-20T13:25:34.525Z,59.16
2023-04-20T13:28:03.089Z,56.54
2023-04-20T13:30:30.184Z,55.65
2023-04-20T13:32:58.155Z,58.29
2023-04-20T13:35:26.165Z,56.91
2023-04-20T13:37:54.717Z,56.38
2023-04-20T13:40:22.104Z,56.36
2023-04-20T13:42:49.223Z,56.55
2023-04-20T13:45:17.439Z,57.65
2023-04-20T13:47:44.617Z,55.65
2023-04-20T13:50:11.501Z,56.07
2023-04-20T13:52:38.537Z,58.14
2023-04-20T13:55:07.908Z,57.59
2023-04-20T14:02:01.195Z,58.89
2023-04-20T14:04:28.104Z,59.28
2023-04-20T14:06:54.995Z,60.00
2023-04-20T14:10:13.887Z,59.75
2023-04-20T14:12:40.811Z,59.92
2023-04-20T14:15:09.054Z,60.41
2023-04-20T14:17:36.043Z,60.03
2023-04-20T14:20:03.031Z,60.71
2023-04-20T14:22:29.955Z,59.67
2023-04-20T14:24:57.009Z,60.73
2023-04-20T14:27:25.326Z,61.02
2023-04-20T14:29:52.322Z,61.62
2023-04-20T14:32:19.254Z,60.98
2023-04-20T14:34:46.394Z,61.09
2023-04-20T14:37:13.253Z,59.95
2023-04-20T14:39:40.295Z,59.47
2023-04-20T14:42:07.321Z,60.02
2023-04-20T14:44:35.626Z,58.22
2023-04-20T14:47:02.831Z,59.46
2023-04-20T14:49:32.115Z,60.09
2023-04-20T14:51:58.980Z,58.86
2023-04-20T14:54:25.864Z,58.11
2023-04-20T14:56:52.849Z,60.77
2023-04-20T15:00:15.857Z,60.16
2023-04-20T15:02:45.240Z,61.11
2023-04-20T15:06:00.228Z,60.23
2023-04-20T15:08:30.112Z,59.92
2023-04-20T15:15:03.832Z,61.01
2023-04-20T15:17:32.356Z,60.68
2023-04-20T15:19:59.289Z,61.38
2023-04-20T15:22:26.155Z,60.91
2023-04-20T15:24:53.184Z,60.68
2023-04-20T15:27:20.090Z,60.83
2023-04-20T15:29:47.103Z,61.69
2023-04-20T15:32:14.398Z,62.25
2023-04-20T15:34:42.978Z,63.15
2023-04-20T15:37:09.950Z,64.28
2023-04-20T15:40:01.121Z,65.41
2023-04-20T15:42:31.179Z,66.88
2023-04-20T15:44:58.073Z,69.61
2023-04-20T15:47:24.942Z,70.62
2023-04-20T15:49:53.482Z,73.27
2023-04-20T15:52:20.346Z,73.98
2023-04-20T15:54:47.511Z,74.50
2023-04-20T15:57:15.221Z,76.29
2023-04-20T15:59:42.514Z,75.93
2023-04-20T16:02:09.460Z,75.83
2023-04-20T16:04:41.712Z,77.25
2023-04-20T16:07:10.100Z,75.82
2023-04-20T16:09:37.145Z,77.00
2023-04-20T16:12:05.192Z,78.18
2023-04-20T16:14:32.413Z,76.18
2023-04-20T16:17:01.845Z,77.05
2023-04-20T16:19:30.797Z,78.38
2023-04-20T16:21:58.177Z,77.68
2023-04-20T16:24:26.759Z,78.55
2023-04-20T16:26:53.706Z,76.63
2023-04-20T16:29:20.712Z,76.90
2023-04-20T16:31:47.811Z,76.90
2023-04-20T16:34:15.616Z,77.04
2023-04-20T16:36:42.616Z,76.95
2023-04-20T16:39:09.860Z,78.78
2023-04-20T16:41:38.106Z,78.31
2023-04-20T16:44:05.120Z,78.90
2023-04-20T16:46:36.212Z,78.61
2023-04-20T16:49:03.532Z,78.86
2023-04-20T16:51:30.510Z,78.40
2023-04-20T16:53:57.573Z,77.95
2023-04-20T16:56:24.458Z,77.72
2023-04-20T16:58:52.842Z,78.01
2023-04-20T17:01:20.893Z,78.55
2023-04-20T17:03:47.951Z,78.70
2023-04-20T17:06:14.929Z,78.41
2023-04-20T17:08:42.294Z,78.44
2023-04-20T17:11:09.196Z,78.12
2023-04-20T17:13:36.203Z,78.59
2023-04-20T17:16:05.645Z,78.91
2023-04-20T17:18:33.046Z,79.11
2023-04-20T17:21:02.236Z,78.34
2023-04-20T17:23:29.218Z,77.63
2023-04-20T17:25:56.165Z,77.56
2023-04-20T17:28:23.317Z,77.16
2023-04-20T17:30:50.315Z,75.70
2023-04-20T17:33:22.258Z,76.68
2023-04-20T17:35:49.185Z,76.32
2023-04-20T17:38:16.087Z,77.39
2023-04-20T17:40:42.991Z,77.48
2023-04-20T17:43:10.920Z,78.23
2023-04-20T17:45:37.857Z,78.35
2023-04-20T17:48:06.058Z,79.54
2023-04-20T17:50:35.642Z,79.68
2023-04-20T17:53:02.579Z,78.65
2023-04-20T17:55:29.775Z,78.67
2023-04-20T17:57:58.282Z,79.57
2023-04-20T18:00:25.311Z,80.35
2023-04-20T18:02:55.671Z,78.77
2023-04-20T18:05:23.738Z,79.42
2023-04-20T18:07:52.418Z,81.08
2023-04-20T18:10:20.559Z,79.43
2023-04-20T18:12:47.542Z,80.99
2023-04-20T18:15:15.033Z,81.90
2023-04-20T18:17:42.131Z,82.20
2023-04-20T18:20:10.709Z,81.93
2023-04-20T18:22:41.245Z,81.91
2023-04-20T18:25:12.516Z,81.99
2023-04-20T18:27:39.435Z,82.20
2023-04-20T18:30:08.857Z,82.49
2023-04-20T18:32:35.876Z,82.92
2023-04-20T18:35:03.545Z,82.11
2023-04-20T18:37:30.637Z,82.56
2023-04-20T18:39:57.931Z,82.45
2023-04-20T18:42:28.009Z,81.25
2023-04-20T18:44:55.565Z,81.21
2023-04-20T18:47:22.855Z,83.00
2023-04-20T18:49:49.917Z,83.10
2023-04-20T18:52:22.120Z,82.04
2023-04-20T19:00:46.674Z,82.14
2023-04-20T19:03:14.021Z,83.55
2023-04-20T19:05:41.282Z,83.47
2023-04-20T19:08:08.309Z,83.22
2023-04-20T19:10:35.480Z,83.05
2023-04-20T19:13:02.380Z,82.63
2023-04-20T19:15:29.959Z,82.35
2023-04-20T19:17:58.383Z,82.15
2023-04-20T19:20:26.351Z,81.48
2023-04-20T19:22:53.376Z,81.22
2023-04-20T19:25:23.501Z,80.89
2023-04-20T19:27:50.491Z,80.45
2023-04-20T19:30:17.410Z,80.31
2023-04-20T19:32:44.647Z,80.40
2023-04-20T19:35:13.129Z,79.84
2023-04-20T19:37:40.126Z,79.75
2023-04-20T19:40:08.394Z,79.84
2023-04-20T19:42:36.233Z,79.97
2023-04-20T19:45:03.422Z,80.17
2023-04-20T19:47:30.920Z,80.51
2023-04-20T19:49:57.930Z,80.59
2023-04-20T19:52:26.262Z,80.47
2023-04-20T19:54:53.160Z,79.69
2023-04-20T19:57:20.010Z,79.58
2023-04-20T19:59:47.027Z,79.96
2023-04-20T20:02:13.963Z,79.38
2023-04-20T20:04:40.937Z,79.78
2023-04-20T20:07:07.880Z,80.95
2023-04-20T20:09:36.450Z,81.65
2023-04-20T20:12:04.151Z,81.59
2023-04-20T20:14:31.204Z,81.73
2023-04-20T20:16:58.293Z,81.56
2023-04-20T20:19:25.400Z,81.54
2023-04-20T20:21:52.519Z,82.57
2023-04-20T20:24:21.047Z,82.38
2023-04-20T20:26:49.783Z,82.48
2023-04-20T20:29:16.918Z,82.32
2023-04-20T20:31:44.214Z,81.57
2023-04-20T20:34:11.068Z,82.24
2023-04-20T20:36:38.098Z,83.64
2023-04-20T20:39:05.176Z,83.51
2023-04-20T20:41:32.097Z,83.59
2023-04-20T20:44:00.557Z,84.42
2023-04-20T20:46:30.380Z,83.63
2023-04-20T20:48:58.463Z,84.79
2023-04-20T20:51:27.248Z,84.89
2023-04-20T20:53:54.288Z,85.01
2023-04-20T20:56:23.930Z,84.76
2023-04-20T20:58:51.049Z,84.47
2023-04-20T21:01:19.376Z,84.63
2023-04-20T21:03:46.350Z,85.75
2023-04-20T21:06:13.304Z,85.87
2023-04-20T21:08:40.245Z,86.50
2023-04-20T21:11:07.161Z,87.01
2023-04-20T21:13:34.170Z,87.19
2023-04-20T21:16:01.186Z,86.28
2023-04-20T21:18:29.520Z,86.29
2023-04-20T21:21:06.446Z,86.91
2023-04-20T21:23:33.529Z,86.31
2023-04-20T21:26:00.510Z,86.12
2023-04-20T21:28:27.540Z,86.02
2023-04-20T21:30:54.545Z,85.88
2023-04-20T21:33:22.126Z,85.52
2023-04-20T21:36:40.416Z,85.48
2023-04-20T21:39:07.371Z,85.64
2023-04-20T21:41:34.293Z,85.31
2023-04-20T21:44:01.309Z,84.93
2023-04-20T21:46:28.389Z,84.73
2023-04-20T21:57:20.136Z,82.98
2023-04-20T21:59:47.288Z,83.25
2023-04-20T22:02:14.265Z,82.99
2023-04-20T22:04:41.817Z,82.97
2023-04-20T22:07:08.751Z,83.38
2023-04-20T22:09:35.728Z,83.33
2023-04-20T22:12:03.057Z,83.54
2023-04-20T22:14:31.220Z,83.81
2023-04-20T22:16:58.200Z,83.86
2023-04-20T22:19:25.616Z,83.97
2023-04-20T22:21:52.711Z,83.49
2023-04-20T22:24:19.575Z,83.09
2023-04-20T22:26:46.698Z,83.91
2023-04-20T22:29:14.428Z,83.87
2023-04-20T22:31:42.890Z,83.72
2023-04-20T22:34:24.078Z,83.94
2023-04-20T22:36:51.033Z,84.02
2023-04-20T22:39:18.463Z,84.16
2023-04-20T22:41:45.789Z,84.30
2023-04-20T22:44:13.975Z,84.56
2023-04-20T22:46:59.949Z,84.70
2023-04-20T22:49:27.704Z,85.33
2023-04-20T22:51:54.790Z,85.59
2023-04-20T22:54:21.929Z,86.10
2023-04-20T22:56:49.044Z,86.41
2023-04-20T22:59:16.387Z,86.93
2023-04-20T23:01:47.374Z,87.00
2023-04-20T23:04:16.014Z,87.74
2023-04-20T23:06:43.061Z,87.75
2023-04-20T23:09:10.625Z,87.94
2023-04-20T23:11:37.516Z,87.71
2023-04-20T23:14:04.667Z,87.60
2023-04-20T23:16:31.951Z,86.80
2023-04-20T23:18:59.432Z,85.94
2023-04-20T23:21:28.515Z,87.34
2023-04-20T23:23:55.735Z,88.30
2023-04-20T23:26:23.521Z,88.78
2023-04-20T23:28:51.111Z,88.67
2023-04-20T23:31:18.310Z,88.04
2023-04-20T23:33:45.515Z,88.35
2023-04-20T23:36:13.397Z,87.75
2023-04-20T23:38:42.370Z,88.37
2023-04-20T23:41:10.123Z,88.26
2023-04-20T23:43:37.716Z,88.97
2023-04-20T23:46:05.496Z,89.41
2023-04-20T23:48:32.924Z,89.81
2023-04-20T23:51:01.063Z,90.01
2023-04-20T23:53:28.150Z,90.04
2023-04-20T23:55:56.700Z,90.06
2023-04-20T23:58:24.805Z,90.28
